createdAt,value
2022-11-26T00:02:23.412Z,6.80
2022-11-26T00:04:52.557Z,6.80
2022-11-26T00:07:26.011Z,6.80
2022-11-26T00:09:54.722Z,6.80
2022-11-26T00:12:26.059Z,6.70
2022-11-26T00:14:54.667Z,6.70
2022-11-26T00:17:23.080Z,6.70
2022-11-26T00:19:51.287Z,6.70
2022-11-26T00:22:25.510Z,6.70
2022-11-26T00:24:54.508Z,6.70
2022-11-26T00:27:26.001Z,6.70
2022-11-26T00:29:54.713Z,6.70
2022-11-26T00:32:25.437Z,6.70
2022-11-26T00:34:54.709Z,6.60
2022-11-26T00:37:29.174Z,6.60
2022-11-26T00:39:58.292Z,6.60
2022-11-26T00:42:26.568Z,6.60
2022-11-26T00:44:54.612Z,6.60
2022-11-26T00:47:22.749Z,6.60
2022-11-26T00:49:50.824Z,6.60
2022-11-26T00:52:34.056Z,6.50
2022-11-26T00:55:07.372Z,6.50
2022-11-26T00:57:36.069Z,6.50
2022-11-26T01:00:07.887Z,6.50
2022-11-26T01:02:35.990Z,6.50
2022-11-26T01:05:04.204Z,6.50
2022-11-26T01:07:33.616Z,6.50
2022-11-26T01:10:01.802Z,6.40
2022-11-26T01:12:29.801Z,6.40
2022-11-26T01:14:58.186Z,6.40
2022-11-26T01:17:26.282Z,6.40
2022-11-26T01:19:54.347Z,6.40
2022-11-26T01:22:24.712Z,6.40
2022-11-26T01:24:54.244Z,6.30
2022-11-26T01:27:22.687Z,6.30
2022-11-26T01:29:50.748Z,6.30
2022-11-26T01:32:18.813Z,6.30
2022-11-26T01:34:46.933Z,6.30
2022-11-26T01:37:15.358Z,6.30
2022-11-26T01:39:43.456Z,6.30
2022-11-26T01:42:23.939Z,6.20
2022-11-26T01:44:52.042Z,6.20
2022-11-26T01:47:23.600Z,6.20
2022-11-26T01:50:28.734Z,6.20
2022-11-26T01:53:00.564Z,6.20
2022-11-26T01:55:33.249Z,6.20
2022-11-26T01:58:03.405Z,6.20
2022-11-26T02:00:31.591Z,6.20
2022-11-26T02:03:00.094Z,6.20
2022-11-26T02:05:31.069Z,6.20
2022-11-26T02:07:59.289Z,6.20
2022-11-26T02:10:27.321Z,6.20
2022-11-26T02:12:55.444Z,6.10
2022-11-26T02:15:28.813Z,6.10
2022-11-26T02:18:01.855Z,6.10
2022-11-26T02:20:46.500Z,6.10
2022-11-26T02:23:49.819Z,6.10
2022-11-26T02:26:49.451Z,6.10
2022-11-26T02:29:24.754Z,6.10
2022-11-26T02:31:59.197Z,6.10
2022-11-26T02:34:37.796Z,6.10
2022-11-26T02:37:11.594Z,6.10
2022-11-26T02:39:39.787Z,6.10
2022-11-26T02:42:24.743Z,6.10
2022-11-26T02:44:54.878Z,6.00
2022-11-26T02:47:27.309Z,6.00
2022-11-26T02:49:58.313Z,6.00
2022-11-26T02:52:27.293Z,6.00
2022-11-26T02:54:56.313Z,6.00
2022-11-26T02:57:28.591Z,6.00
2022-11-26T02:59:57.334Z,6.00
2022-11-26T03:02:31.356Z,6.00
2022-11-26T03:05:02.678Z,6.00
2022-11-26T03:07:32.146Z,6.00
2022-11-26T03:10:01.981Z,6.00
2022-11-26T03:12:30.522Z,6.00
2022-11-26T03:14:58.583Z,6.00
2022-11-26T03:17:28.099Z,6.00
2022-11-26T03:19:56.160Z,6.00
2022-11-26T03:22:24.231Z,6.00
2022-11-26T03:24:52.325Z,6.00
2022-11-26T03:27:20.414Z,6.00
2022-11-26T03:29:48.466Z,6.00
2022-11-26T03:32:16.576Z,6.00
2022-11-26T03:34:47.115Z,6.00
2022-11-26T03:37:15.770Z,6.00
2022-11-26T03:39:43.877Z,5.90
2022-11-26T03:42:12.092Z,5.90
2022-11-26T03:44:40.519Z,5.90
2022-11-26T03:47:08.857Z,5.90
2022-11-26T03:49:36.965Z,5.90
2022-11-26T03:52:06.659Z,5.90
2022-11-26T03:54:34.817Z,5.90
2022-11-26T03:57:03.077Z,5.90
2022-11-26T03:59:31.268Z,5.90
2022-11-26T04:01:59.447Z,5.90
2022-11-26T04:04:27.574Z,5.80
2022-11-26T04:06:55.642Z,5.80
2022-11-26T04:09:25.092Z,5.80
2022-11-26T04:11:53.132Z,5.80
2022-11-26T04:14:21.215Z,5.80
2022-11-26T04:16:49.336Z,5.80
2022-11-26T04:19:17.464Z,5.70
2022-11-26T04:21:45.488Z,5.70
2022-11-26T04:24:16.184Z,5.70
2022-11-26T04:26:45.776Z,5.70
2022-11-26T04:29:13.790Z,5.60
2022-11-26T04:31:42.006Z,5.60
2022-11-26T04:34:10.069Z,5.60
2022-11-26T04:36:39.307Z,5.60
2022-11-26T04:39:07.644Z,5.50
2022-11-26T04:41:35.815Z,5.50
2022-11-26T04:44:05.547Z,5.50
2022-11-26T04:46:33.564Z,5.50
2022-11-26T04:49:01.832Z,5.40
2022-11-26T04:51:30.006Z,5.40
2022-11-26T04:54:02.576Z,5.40
2022-11-26T04:56:31.126Z,5.40
2022-11-26T04:58:59.224Z,5.30
2022-11-26T05:01:28.773Z,5.30
2022-11-26T05:03:56.920Z,5.30
2022-11-26T05:06:24.962Z,5.30
2022-11-26T05:08:53.000Z,5.30
2022-11-26T05:11:21.151Z,5.30
2022-11-26T05:13:49.228Z,5.30
2022-11-26T05:16:17.428Z,5.20
2022-11-26T05:18:47.025Z,5.30
2022-11-26T05:21:15.100Z,5.30
2022-11-26T05:23:43.183Z,5.30
2022-11-26T05:26:11.263Z,5.30
2022-11-26T05:28:39.494Z,5.30
2022-11-26T05:31:07.710Z,5.30
2022-11-26T05:33:35.780Z,5.30
2022-11-26T05:36:06.142Z,5.30
2022-11-26T05:38:34.218Z,5.30
2022-11-26T05:41:02.496Z,5.40
2022-11-26T05:43:30.722Z,5.40
2022-11-26T05:46:03.867Z,5.40
2022-11-26T05:48:31.978Z,5.40
2022-11-26T05:51:00.666Z,5.40
2022-11-26T05:53:30.435Z,5.40
2022-11-26T05:55:58.804Z,5.30
2022-11-26T05:58:27.083Z,5.40
2022-11-26T06:00:55.495Z,5.40
2022-11-26T06:03:23.699Z,5.40
2022-11-26T06:05:51.953Z,5.40
2022-11-26T06:08:20.444Z,5.40
2022-11-26T06:10:49.834Z,5.40
2022-11-26T06:13:18.116Z,5.40
2022-11-26T06:15:46.336Z,5.50
2022-11-26T06:18:14.370Z,5.50
2022-11-26T06:20:42.519Z,5.50
2022-11-26T06:23:10.687Z,5.50
2022-11-26T06:25:41.025Z,5.40
2022-11-26T06:28:10.561Z,5.50
2022-11-26T06:30:38.687Z,5.50
2022-11-26T06:33:06.684Z,5.50
2022-11-26T06:35:35.247Z,5.50
2022-11-26T06:38:03.342Z,5.50
2022-11-26T06:40:31.434Z,5.50
2022-11-26T06:42:59.615Z,5.50
2022-11-26T06:45:29.187Z,5.50
2022-11-26T06:47:57.392Z,5.60
2022-11-26T06:50:25.446Z,5.50
2022-11-26T06:52:53.969Z,5.50
2022-11-26T06:55:22.637Z,5.60
2022-11-26T06:57:52.071Z,5.60
2022-11-26T07:00:22.015Z,5.60
2022-11-26T07:02:51.516Z,5.60
2022-11-26T07:05:19.809Z,5.60
2022-11-26T07:07:47.887Z,5.60
2022-11-26T07:10:15.960Z,5.60
2022-11-26T07:12:43.973Z,5.60
2022-11-26T07:15:12.818Z,5.60
2022-11-26T07:17:40.869Z,5.60
2022-11-26T07:20:11.205Z,5.70
2022-11-26T07:22:39.266Z,5.70
2022-11-26T07:25:12.320Z,5.70
2022-11-26T07:27:41.269Z,5.70
2022-11-26T07:30:10.356Z,5.70
2022-11-26T07:32:38.544Z,5.70
2022-11-26T07:35:07.424Z,5.70
2022-11-26T07:37:36.944Z,5.70
2022-11-26T07:40:06.339Z,5.70
2022-11-26T07:42:35.039Z,5.70
2022-11-26T07:45:04.627Z,5.70
2022-11-26T07:47:32.687Z,5.70
2022-11-26T07:50:01.036Z,5.70
2022-11-26T07:52:29.131Z,5.70
2022-11-26T07:54:58.499Z,5.70
2022-11-26T07:57:26.605Z,5.70
2022-11-26T07:59:54.634Z,5.70
2022-11-26T08:02:22.653Z,5.70
2022-11-26T08:04:50.959Z,5.70
2022-11-26T08:07:24.533Z,5.70
2022-11-26T08:10:01.500Z,5.70
2022-11-26T08:12:29.607Z,5.70
2022-11-26T08:14:57.647Z,5.70
2022-11-26T08:17:25.712Z,5.70
2022-11-26T08:19:53.968Z,5.70
2022-11-26T08:22:22.078Z,5.80
2022-11-26T08:24:51.310Z,5.80
2022-11-26T08:27:21.020Z,5.70
2022-11-26T08:29:49.110Z,5.70
2022-11-26T08:32:17.168Z,5.80
2022-11-26T08:34:45.382Z,5.80
2022-11-26T08:37:13.511Z,5.80
2022-11-26T08:39:41.789Z,5.80
2022-11-26T08:42:09.881Z,5.90
2022-11-26T08:47:22.051Z,5.90
2022-11-26T08:49:50.150Z,5.90
2022-11-26T08:52:18.363Z,5.90
2022-11-26T08:54:46.778Z,6.00
2022-11-26T08:57:15.207Z,6.00
2022-11-26T08:59:44.732Z,6.00
2022-11-26T09:02:18.463Z,6.00
2022-11-26T09:04:46.903Z,6.10
2022-11-26T09:07:15.309Z,6.10
2022-11-26T09:09:43.499Z,6.10
2022-11-26T09:12:12.183Z,6.10
2022-11-26T09:14:42.348Z,6.20
2022-11-26T09:17:13.381Z,6.20
2022-11-26T09:19:41.511Z,6.20
2022-11-26T09:22:09.690Z,6.30
2022-11-26T09:24:38.002Z,6.30
2022-11-26T09:27:08.237Z,6.30
2022-11-26T09:29:38.565Z,6.40
2022-11-26T09:32:23.471Z,6.40
2022-11-26T09:34:54.734Z,6.40
2022-11-26T09:37:22.978Z,6.50
2022-11-26T09:39:51.229Z,6.50
2022-11-26T09:42:29.983Z,6.50
2022-11-26T09:45:05.783Z,6.60
2022-11-26T09:47:39.492Z,6.60
2022-11-26T09:50:22.245Z,6.70
2022-11-26T09:52:56.462Z,6.70
2022-11-26T09:55:27.502Z,6.70
2022-11-26T09:58:04.797Z,6.80
2022-11-26T10:00:39.238Z,6.80
2022-11-26T10:03:15.975Z,6.90
2022-11-26T10:05:51.228Z,6.90
2022-11-26T10:08:54.355Z,7.00
2022-11-26T10:11:29.720Z,7.00
2022-11-26T10:14:10.917Z,7.00
2022-11-26T10:16:45.167Z,7.10
2022-11-26T10:19:21.343Z,7.10
2022-11-26T10:21:59.770Z,7.10
2022-11-26T10:24:31.406Z,7.20
2022-11-26T10:27:02.750Z,7.20
2022-11-26T10:29:38.233Z,7.20
2022-11-26T10:32:15.118Z,7.20
2022-11-26T10:34:50.588Z,7.30
2022-11-26T10:37:21.509Z,7.30
2022-11-26T10:40:01.045Z,7.40
2022-11-26T10:42:42.144Z,7.40
2022-11-26T10:45:19.885Z,7.40
2022-11-26T10:47:48.042Z,7.50
2022-11-26T10:50:46.761Z,7.50
2022-11-26T10:53:22.205Z,7.50
2022-11-26T10:55:51.833Z,7.50
2022-11-26T10:58:22.456Z,7.60
2022-11-26T11:00:58.188Z,7.60
2022-11-26T11:03:59.677Z,7.60
2022-11-26T11:06:35.813Z,7.60
2022-11-26T11:09:29.393Z,7.60
2022-11-26T11:12:23.940Z,7.70
2022-11-26T11:14:53.200Z,7.60
2022-11-26T11:17:33.764Z,7.70
2022-11-26T11:20:07.903Z,7.70
2022-11-26T11:22:36.249Z,7.70
2022-11-26T11:25:06.241Z,7.70
2022-11-26T11:27:46.883Z,7.70
2022-11-26T11:30:26.428Z,7.70
2022-11-26T11:32:58.198Z,7.70
2022-11-26T11:35:30.287Z,7.80
2022-11-26T11:37:59.371Z,7.80
2022-11-26T11:40:31.008Z,7.80
2022-11-26T11:43:01.196Z,7.80
2022-11-26T11:45:35.461Z,7.90
2022-11-26T11:48:18.393Z,7.90
2022-11-26T11:50:52.564Z,7.90
2022-11-26T11:53:35.168Z,7.90
2022-11-26T11:56:29.810Z,7.90
2022-11-26T11:59:36.063Z,8.00
2022-11-26T12:02:42.700Z,8.00
2022-11-26T12:05:32.503Z,8.00
2022-11-26T12:08:12.844Z,8.00
2022-11-26T12:10:49.328Z,8.00
2022-11-26T12:13:23.025Z,8.00
2022-11-26T12:15:55.029Z,8.00
2022-11-26T12:18:28.274Z,8.00
2022-11-26T12:21:00.150Z,8.00
2022-11-26T12:23:34.022Z,8.10
2022-11-26T12:26:07.585Z,8.00
2022-11-26T12:28:43.211Z,8.00
2022-11-26T12:31:18.312Z,8.10
2022-11-26T12:33:51.123Z,8.00
2022-11-26T12:36:24.196Z,8.00
2022-11-26T12:38:55.113Z,8.00
2022-11-26T12:41:28.735Z,8.00
2022-11-26T12:44:05.628Z,8.10
2022-11-26T12:46:41.024Z,8.10
2022-11-26T12:49:18.052Z,8.10
2022-11-26T12:51:51.088Z,8.10
2022-11-26T12:54:24.626Z,8.10
2022-11-26T12:57:00.611Z,8.10
2022-11-26T12:59:34.439Z,8.10
2022-11-26T13:02:15.062Z,8.10
2022-11-26T13:04:43.177Z,8.10
2022-11-26T13:07:21.841Z,8.20
2022-11-26T13:10:03.620Z,8.20
2022-11-26T13:12:46.727Z,8.20
2022-11-26T13:15:23.926Z,8.20
2022-11-26T13:17:52.840Z,8.20
2022-11-26T13:20:42.591Z,8.20
2022-11-26T13:23:39.236Z,8.20
2022-11-26T13:26:19.044Z,8.30
2022-11-26T13:29:04.902Z,8.30
2022-11-26T13:31:46.616Z,8.30
2022-11-26T13:34:29.886Z,8.30
2022-11-26T13:37:25.180Z,8.30
2022-11-26T13:40:20.873Z,8.30
2022-11-26T13:43:04.807Z,8.30
2022-11-26T13:45:59.017Z,8.30
2022-11-26T13:48:38.324Z,8.30
2022-11-26T13:51:10.700Z,8.30
2022-11-26T13:53:44.622Z,8.30
2022-11-26T13:56:16.099Z,8.30
2022-11-26T13:58:48.779Z,8.30
2022-11-26T14:01:32.982Z,8.30
2022-11-26T14:04:03.810Z,8.40
2022-11-26T14:06:32.200Z,8.40
2022-11-26T14:09:00.469Z,8.40
2022-11-26T14:11:57.841Z,8.40
2022-11-26T14:14:37.125Z,8.40
2022-11-26T14:17:34.946Z,8.40
2022-11-26T14:20:12.082Z,8.40
2022-11-26T14:22:40.363Z,8.40
2022-11-26T14:25:14.210Z,8.40
2022-11-26T14:27:50.020Z,8.50
2022-11-26T14:30:24.876Z,8.50
2022-11-26T14:32:59.989Z,8.50
2022-11-26T14:35:34.443Z,8.50
2022-11-26T14:38:04.771Z,8.40
2022-11-26T14:40:34.651Z,8.40
2022-11-26T14:43:23.927Z,8.50
2022-11-26T14:46:04.271Z,8.40
2022-11-26T14:48:34.499Z,8.50
2022-11-26T14:51:08.177Z,8.50
2022-11-26T14:53:37.210Z,8.40
2022-11-26T14:56:06.677Z,8.40
2022-11-26T14:58:38.834Z,8.40
2022-11-26T15:01:09.359Z,8.40
2022-11-26T15:03:37.654Z,8.40
2022-11-26T15:06:07.771Z,8.40
2022-11-26T15:08:35.938Z,8.40
2022-11-26T15:11:07.657Z,8.40
2022-11-26T15:13:39.587Z,8.50
2022-11-26T15:16:27.083Z,8.40
2022-11-26T15:18:56.591Z,8.50
2022-11-26T15:21:28.249Z,8.40
2022-11-26T15:23:59.798Z,8.50
2022-11-26T15:26:33.335Z,8.40
2022-11-26T15:29:01.630Z,8.40
2022-11-26T15:31:40.903Z,8.40
2022-11-26T15:34:13.817Z,8.40
2022-11-26T15:36:43.324Z,8.40
2022-11-26T15:39:26.035Z,8.40
2022-11-26T15:41:56.219Z,8.40
2022-11-26T15:44:26.443Z,8.40
2022-11-26T15:46:57.053Z,8.40
2022-11-26T15:49:29.150Z,8.40
2022-11-26T15:52:03.448Z,8.40
2022-11-26T15:54:49.635Z,8.40
2022-11-26T15:57:27.148Z,8.40
2022-11-26T15:59:58.506Z,8.30
2022-11-26T16:02:28.973Z,8.40
2022-11-26T16:04:58.548Z,8.40
2022-11-26T16:07:30.171Z,8.40
2022-11-26T16:10:22.321Z,8.40
2022-11-26T16:13:17.030Z,8.40
2022-11-26T16:15:50.591Z,8.30
2022-11-26T16:18:26.505Z,8.30
2022-11-26T16:21:04.391Z,8.30
2022-11-26T16:23:34.370Z,8.30
2022-11-26T16:26:11.551Z,8.30
2022-11-26T16:28:40.053Z,8.30
2022-11-26T16:31:08.519Z,8.30
2022-11-26T16:33:36.673Z,8.30
2022-11-26T16:36:19.291Z,8.30
2022-11-26T16:38:49.364Z,8.30
2022-11-26T16:41:19.892Z,8.30
2022-11-26T16:43:48.677Z,8.30
2022-11-26T16:46:18.931Z,8.30
2022-11-26T16:48:47.723Z,8.20
2022-11-26T16:51:15.902Z,8.20
2022-11-26T16:53:44.140Z,8.20
2022-11-26T16:56:21.023Z,8.20
2022-11-26T16:58:50.022Z,8.20
2022-11-26T17:01:18.222Z,8.20
2022-11-26T17:03:46.413Z,8.20
2022-11-26T17:06:17.174Z,8.20
2022-11-26T17:08:49.742Z,8.20
2022-11-26T17:11:19.727Z,8.20
2022-11-26T17:13:47.799Z,8.20
2022-11-26T17:16:17.874Z,8.20
2022-11-26T17:18:45.994Z,8.20
2022-11-26T17:21:14.866Z,8.20
2022-11-26T17:23:43.039Z,8.20
2022-11-26T17:26:24.077Z,8.20
2022-11-26T17:28:52.627Z,8.20
2022-11-26T17:31:20.778Z,8.20
2022-11-26T17:33:50.659Z,8.20
2022-11-26T17:36:20.826Z,8.20
2022-11-26T17:38:49.294Z,8.10
2022-11-26T17:41:17.996Z,8.20
2022-11-26T17:43:47.502Z,8.20
2022-11-26T17:46:18.156Z,8.20
2022-11-26T17:48:46.806Z,8.20
2022-11-26T17:51:15.954Z,8.20
2022-11-26T17:53:45.031Z,8.20
2022-11-26T17:56:18.354Z,8.20
2022-11-26T17:58:47.993Z,8.20
2022-11-26T18:01:17.009Z,8.20
2022-11-26T18:03:45.676Z,8.20
2022-11-26T18:06:16.930Z,8.20
2022-11-26T18:08:45.849Z,8.20
2022-11-26T18:11:15.729Z,8.20
2022-11-26T18:13:43.962Z,8.10
2022-11-26T18:16:13.569Z,8.20
2022-11-26T18:18:41.714Z,8.20
2022-11-26T18:21:09.941Z,8.20
2022-11-26T18:23:38.109Z,8.20
2022-11-26T18:26:07.685Z,8.10
2022-11-26T18:28:35.851Z,8.20
2022-11-26T18:31:04.084Z,8.20
2022-11-26T18:33:33.802Z,8.20
2022-11-26T18:36:02.066Z,8.30
2022-11-26T18:38:32.972Z,8.20
2022-11-26T18:41:03.509Z,8.20
2022-11-26T18:43:32.529Z,8.20
2022-11-26T18:46:04.050Z,8.20
2022-11-26T18:48:35.277Z,8.20
2022-11-26T18:51:03.644Z,8.20
2022-11-26T18:53:32.291Z,8.20
2022-11-26T18:56:00.426Z,8.20
2022-11-26T18:58:28.624Z,8.20
2022-11-26T19:00:58.472Z,8.20
2022-11-26T19:03:27.385Z,8.20
2022-11-26T19:05:57.050Z,8.20
2022-11-26T19:08:25.295Z,8.20
2022-11-26T19:10:53.360Z,8.20
2022-11-26T19:13:21.681Z,8.20
2022-11-26T19:15:50.236Z,8.20
2022-11-26T19:18:18.383Z,8.20
2022-11-26T19:20:50.746Z,8.20
2022-11-26T19:23:24.255Z,8.20
2022-11-26T19:25:52.323Z,8.20
2022-11-26T19:28:20.327Z,8.10
2022-11-26T19:30:59.115Z,8.10
2022-11-26T19:33:27.237Z,8.10
2022-11-26T19:35:55.516Z,8.10
2022-11-26T19:38:26.707Z,8.10
2022-11-26T19:40:57.271Z,8.10
2022-11-26T19:43:26.239Z,8.10
2022-11-26T19:46:01.683Z,8.10
2022-11-26T19:48:29.786Z,8.10
2022-11-26T19:50:57.860Z,8.00
2022-11-26T19:53:27.317Z,8.00
2022-11-26T19:55:59.589Z,8.00
2022-11-26T19:58:28.219Z,8.00
2022-11-26T20:00:56.367Z,7.90
2022-11-26T20:03:25.705Z,7.90
2022-11-26T20:05:53.904Z,7.90
2022-11-26T20:08:22.305Z,7.80
2022-11-26T20:10:51.767Z,7.80
2022-11-26T20:13:19.864Z,7.80
2022-11-26T20:15:48.995Z,7.80
2022-11-26T20:18:17.069Z,7.70
2022-11-26T20:20:45.219Z,7.70
2022-11-26T20:23:13.742Z,7.70
2022-11-26T20:25:41.827Z,7.70
2022-11-26T20:28:11.484Z,7.60
2022-11-26T20:30:39.590Z,7.60
2022-11-26T20:33:07.729Z,7.60
2022-11-26T20:35:36.487Z,7.60
2022-11-26T20:38:04.703Z,7.50
2022-11-26T20:40:32.907Z,7.50
2022-11-26T20:43:01.412Z,7.60
2022-11-26T20:45:30.889Z,7.50
2022-11-26T20:47:58.945Z,7.50
2022-11-26T20:50:27.125Z,7.50
2022-11-26T20:52:55.156Z,7.40
2022-11-26T20:55:25.089Z,7.40
2022-11-26T20:57:53.897Z,7.40
2022-11-26T21:00:27.189Z,7.40
2022-11-26T21:02:57.075Z,7.40
2022-11-26T21:05:25.656Z,7.40
2022-11-26T21:07:53.827Z,7.30
2022-11-26T21:10:25.118Z,7.30
2022-11-26T21:12:53.228Z,7.30
2022-11-26T21:15:22.491Z,7.30
2022-11-26T21:17:50.641Z,7.30
2022-11-26T21:20:20.741Z,7.30
2022-11-26T21:22:49.035Z,7.30
2022-11-26T21:25:17.331Z,7.30
2022-11-26T21:27:45.555Z,7.20
2022-11-26T21:30:14.765Z,7.20
2022-11-26T21:32:43.139Z,7.20
2022-11-26T21:35:11.433Z,7.20
2022-11-26T21:37:40.951Z,7.20
2022-11-26T21:40:10.575Z,7.20
2022-11-26T21:42:38.716Z,7.20
2022-11-26T21:45:08.484Z,7.20
2022-11-26T21:47:36.913Z,7.20
2022-11-26T21:50:05.794Z,7.10
2022-11-26T21:52:33.883Z,7.10
2022-11-26T21:55:03.928Z,7.10
2022-11-26T21:57:32.547Z,7.10
2022-11-26T22:00:00.658Z,7.10
2022-11-26T22:02:28.836Z,7.10
2022-11-26T22:04:56.894Z,7.10
2022-11-26T22:07:25.104Z,7.10
2022-11-26T22:09:53.502Z,7.10
2022-11-26T22:12:23.015Z,7.10
2022-11-26T22:14:51.101Z,7.00
2022-11-26T22:17:19.191Z,7.00
2022-11-26T22:19:47.743Z,7.00
2022-11-26T22:22:15.792Z,7.00
2022-11-26T22:24:43.836Z,7.00
2022-11-26T22:27:12.012Z,7.00
2022-11-26T22:29:41.843Z,7.00
2022-11-26T22:32:10.046Z,7.00
2022-11-26T22:34:38.089Z,7.10
2022-11-26T22:37:06.306Z,7.10
2022-11-26T22:39:34.366Z,7.10
2022-11-26T22:42:02.792Z,7.10
2022-11-26T22:44:30.892Z,7.10
2022-11-26T22:47:00.376Z,7.10
2022-11-26T22:49:28.695Z,7.10
2022-11-26T22:51:56.743Z,7.10
2022-11-26T22:54:24.992Z,7.10
2022-11-26T22:56:53.055Z,7.10
2022-11-26T22:59:21.167Z,7.10
2022-11-26T23:01:49.270Z,7.10
2022-11-26T23:04:18.743Z,7.10
2022-11-26T23:06:46.919Z,7.10
2022-11-26T23:09:15.223Z,7.10
2022-11-26T23:11:44.143Z,7.10
2022-11-26T23:14:12.853Z,7.10
2022-11-26T23:16:42.978Z,7.00
2022-11-26T23:19:14.035Z,7.10
2022-11-26T23:21:44.688Z,7.00
2022-11-26T23:24:13.471Z,7.00
2022-11-26T23:26:42.059Z,7.00
2022-11-26T23:29:11.053Z,7.00
2022-11-26T23:31:41.224Z,7.00
2022-11-26T23:34:11.080Z,7.00
2022-11-26T23:36:39.650Z,7.00
2022-11-26T23:39:12.132Z,7.00
2022-11-26T23:41:40.157Z,6.90
2022-11-26T23:44:08.204Z,6.90
2022-11-26T23:46:36.626Z,6.90
2022-11-26T23:49:06.935Z,6.90
2022-11-26T23:51:35.186Z,6.90
2022-11-26T23:54:03.465Z,6.90
2022-11-26T23:56:35.001Z,6.90
2022-11-26T23:59:05.181Z,6.90
